Time;durP1;ratioP1;P1;durP2;ratioP2;P2;SDS_P1;SDS_P2;PMS_P1;PMS_P2;Temp;Humidity;BMP_temperature;BMP_pressure;BME280_temperature;BME280_humidity;BME280_pressure;Samples;Min_cycle;Max_cycle;Signal;HPM_P1;HPM_P2
2022/09/29 00:00:52;;;;;;;0.73;0.70;;;10.90;52.40;;;;;;5043867;28;20443;-77
2022/09/29 00:03:20;;;;;;;1.92;0.90;;;10.90;52.50;;;;;;5037433;28;20033;-74
2022/09/29 00:05:50;;;;;;;1.77;0.75;;;10.90;52.50;;;;;;5035830;28;20037;-76
2022/09/29 00:08:17;;;;;;;1.80;0.82;;;10.90;52.60;;;;;;5048188;28;20041;-76
2022/09/29 00:10:44;;;;;;;1.17;1.02;;;10.90;52.60;;;;;;5047965;28;20036;-76
2022/09/29 00:13:10;;;;;;;1.83;0.63;;;10.80;52.40;;;;;;5046796;28;20036;-76
2022/09/29 00:15:36;;;;;;;2.00;0.80;;;10.80;52.40;;;;;;5042430;28;20044;-76
2022/09/29 00:18:03;;;;;;;1.73;1.40;;;10.80;52.50;;;;;;5045099;28;20424;-77
2022/09/29 00:20:29;;;;;;;1.15;0.90;;;10.70;52.40;;;;;;5033434;28;20021;-77
2022/09/29 00:22:55;;;;;;;0.85;0.80;;;10.70;52.40;;;;;;5049766;28;20031;-76
2022/09/29 00:25:21;;;;;;;1.05;0.80;;;10.70;52.50;;;;;;5045637;28;20025;-75
2022/09/29 00:27:47;;;;;;;0.98;0.80;;;10.70;52.50;;;;;;5049332;28;20064;-76
2022/09/29 00:30:13;;;;;;;1.02;1.02;;;10.70;52.50;;;;;;5020938;28;20418;-77
2022/09/29 00:32:39;;;;;;;0.77;0.75;;;10.70;52.60;;;;;;5041766;28;20068;-76
2022/09/29 00:35:07;;;;;;;1.58;0.65;;;10.70;52.60;;;;;;5050672;28;20029;-76
2022/09/29 00:37:34;;;;;;;0.60;0.60;;;10.70;52.70;;;;;;5046275;28;20064;-76
2022/09/29 00:40:00;;;;;;;0.85;0.70;;;10.70;52.70;;;;;;5044552;28;20412;-75
2022/09/29 00:42:27;;;;;;;1.42;0.88;;;10.70;52.70;;;;;;5042132;28;20439;-75
2022/09/29 00:45:14;;;;;;;1.27;0.68;;;10.70;52.80;;;;;;5050249;28;20024;-77
2022/09/29 00:47:43;;;;;;;1.27;0.77;;;10.80;53.00;;;;;;5048469;28;20037;-76
2022/09/29 00:50:21;;;;;;;0.80;0.80;;;10.80;53.00;;;;;;5039123;28;20101;-77
2022/09/29 00:52:55;;;;;;;2.38;0.90;;;10.80;53.10;;;;;;5047138;28;20504;-77
2022/09/29 00:55:24;;;;;;;1.05;0.70;;;10.80;53.00;;;;;;5040884;28;20563;-75
2022/09/29 00:58:16;;;;;;;0.50;0.50;;;10.80;53.00;;;;;;5046732;28;20473;-76
2022/09/29 01:00:42;;;;;;;1.13;0.65;;;10.80;53.10;;;;;;5031693;28;20033;-76
2022/09/29 01:03:16;;;;;;;1.80;0.70;;;10.80;53.00;;;;;;5053110;28;20047;-76
2022/09/29 01:05:50;;;;;;;1.63;0.60;;;10.80;53.20;;;;;;5045094;28;20043;-76
2022/09/29 01:08:35;;;;;;;1.05;0.80;;;10.80;53.20;;;;;;5040603;28;20040;-76
2022/09/29 01:11:04;;;;;;;0.93;0.60;;;10.90;53.40;;;;;;5041772;28;20034;-75
2022/09/29 01:13:32;;;;;;;1.48;0.70;;;10.90;53.40;;;;;;5041948;28;20430;-76
2022/09/29 01:15:59;;;;;;;2.78;0.73;;;10.80;53.40;;;;;;5025863;28;20548;-75
2022/09/29 01:18:25;;;;;;;1.58;0.63;;;10.90;53.60;;;;;;5044667;28;20028;-78
2022/09/29 01:21:21;;;;;;;1.10;0.63;;;10.90;53.60;;;;;;5051694;28;20036;-78
2022/09/29 01:24:08;;;;;;;1.23;0.70;;;10.90;53.80;;;;;;5049525;28;20100;-77
2022/09/29 01:26:53;;;;;;;1.48;0.55;;;10.90;53.70;;;;;;5053061;28;20085;-77
2022/09/29 01:29:51;;;;;;;1.63;0.82;;;10.90;53.90;;;;;;5049412;28;20033;-76
2022/09/29 01:32:55;;;;;;;1.38;0.90;;;10.90;53.90;;;;;;5046948;28;20094;-77
2022/09/29 01:35:48;;;;;;;0.77;0.70;;;10.90;54.00;;;;;;5041948;28;20037;-76
2022/09/29 01:38:25;;;;;;;2.30;0.73;;;10.90;54.10;;;;;;5043591;28;20405;-76
2022/09/29 01:41:00;;;;;;;2.38;0.90;;;11.00;54.10;;;;;;5046291;28;20043;-77
2022/09/29 01:43:39;;;;;;;1.90;0.98;;;11.00;54.30;;;;;;5046233;28;20031;-77
2022/09/29 01:46:24;;;;;;;1.10;1.00;;;11.00;54.40;;;;;;5048034;28;20133;-77
2022/09/29 01:48:54;;;;;;;0.98;0.88;;;11.00;54.60;;;;;;5047502;28;20041;-76
2022/09/29 01:51:28;;;;;;;1.15;0.80;;;11.00;54.50;;;;;;5033313;28;20190;-77
2022/09/29 01:54:00;;;;;;;1.63;0.82;;;11.00;54.60;;;;;;5050214;28;20057;-77
2022/09/29 01:56:42;;;;;;;1.52;0.70;;;11.10;54.90;;;;;;5039892;28;20102;-76
2022/09/29 01:59:23;;;;;;;2.03;0.80;;;11.10;55.00;;;;;;5049168;28;20043;-77
2022/09/29 02:01:53;;;;;;;1.75;0.98;;;11.10;55.00;;;;;;5051904;28;20139;-77
2022/09/29 02:04:45;;;;;;;1.00;0.90;;;11.10;55.00;;;;;;5050580;28;20392;-77
2022/09/29 02:07:38;;;;;;;1.37;1.00;;;11.10;55.40;;;;;;5049902;28;20512;-76
2022/09/29 02:10:25;;;;;;;;;;;11.10;55.30;;;;;;5044158;28;20283;-77
2022/09/29 02:12:55;;;;;;;1.67;0.90;;;11.10;55.10;;;;;;5039913;28;20201;-76
2022/09/29 02:15:26;;;;;;;1.95;0.90;;;11.10;54.90;;;;;;5047392;28;20028;-76
2022/09/29 02:17:56;;;;;;;1.73;1.08;;;11.10;55.20;;;;;;5052187;28;20095;-75
2022/09/29 02:20:23;;;;;;;4.57;1.00;;;11.20;55.50;;;;;;5046968;28;20192;-74
2022/09/29 02:22:49;;;;;;;1.27;0.80;;;11.20;55.60;;;;;;5071250;28;20029;-75
2022/09/29 02:25:17;;;;;;;1.58;0.70;;;11.20;55.70;;;;;;5038007;28;20033;-77
2022/09/29 02:27:46;;;;;;;2.40;0.80;;;11.20;55.80;;;;;;5059748;28;20409;-76
2022/09/29 02:30:12;;;;;;;0.80;0.80;;;11.20;55.90;;;;;;5052157;28;20492;-76
2022/09/29 02:32:39;;;;;;;1.92;0.50;;;11.20;56.10;;;;;;5052207;28;20464;-75
2022/09/29 02:35:07;;;;;;;1.65;0.70;;;11.20;56.10;;;;;;5050217;28;20029;-76
2022/09/29 02:37:34;;;;;;;1.83;0.65;;;11.20;56.30;;;;;;5053217;28;20029;-76
2022/09/29 02:40:21;;;;;;;1.92;1.10;;;11.20;56.30;;;;;;5049526;28;20029;-76
2022/09/29 02:43:02;;;;;;;2.00;0.90;;;11.20;56.40;;;;;;5035567;28;20088;-76
2022/09/29 02:45:32;;;;;;;2.13;0.88;;;11.20;56.60;;;;;;5062649;28;20024;-76
2022/09/29 02:48:05;;;;;;;1.58;0.85;;;11.20;56.50;;;;;;5060656;28;20045;-75
2022/09/29 02:50:50;;;;;;;1.38;0.90;;;11.20;56.70;;;;;;5051681;28;20051;-76
2022/09/29 02:53:24;;;;;;;2.90;1.30;;;11.20;56.60;;;;;;5051190;28;20029;-76
2022/09/29 02:55:50;;;;;;;;;;;11.20;57.30;;;;;;5063369;28;20281;-76
2022/09/29 02:58:38;;;;;;;1.98;1.08;;;11.20;56.70;;;;;;5050842;28;19913;-76
2022/09/29 03:01:06;;;;;;;2.70;1.02;;;11.20;56.70;;;;;;5051052;28;20442;-76
2022/09/29 03:03:32;;;;;;;2.78;1.40;;;11.20;56.60;;;;;;5050765;28;20021;-76
2022/09/29 03:05:58;;;;;;;1.60;1.02;;;11.20;57.30;;;;;;5048960;28;20032;-77
2022/09/29 03:08:24;;;;;;;2.25;1.10;;;11.20;56.90;;;;;;5044645;28;20048;-76
2022/09/29 03:10:52;;;;;;;1.65;0.80;;;11.20;57.10;;;;;;5046741;28;20029;-76
2022/09/29 03:13:17;;;;;;;1.35;0.70;;;11.20;57.20;;;;;;5040809;28;20035;-75
2022/09/29 03:15:43;;;;;;;1.52;1.00;;;11.20;57.30;;;;;;5051804;28;20029;-77
2022/09/29 03:18:10;;;;;;;1.27;1.10;;;11.30;57.60;;;;;;5051949;28;20037;-76
2022/09/29 03:20:36;;;;;;;1.17;0.80;;;11.20;57.40;;;;;;5050637;28;20052;-76
2022/09/29 03:23:02;;;;;;;2.55;1.00;;;11.30;57.70;;;;;;5048016;28;20064;-74
2022/09/29 03:25:28;;;;;;;2.20;0.80;;;11.30;57.80;;;;;;5052075;28;20124;-77
2022/09/29 03:27:54;;;;;;;4.43;1.00;;;11.30;57.90;;;;;;5049970;28;20838;-76
2022/09/29 03:30:22;;;;;;;2.92;1.10;;;11.30;58.00;;;;;;5051438;28;20037;-76
2022/09/29 03:32:48;;;;;;;1.80;0.80;;;11.30;58.10;;;;;;5038279;28;20030;-77
2022/09/29 03:35:14;;;;;;;1.63;0.90;;;11.30;58.20;;;;;;5051500;28;20039;-75
2022/09/29 03:37:40;;;;;;;2.13;0.82;;;11.30;58.20;;;;;;5050530;28;20226;-75
2022/09/29 03:40:06;;;;;;;1.60;0.80;;;11.40;58.50;;;;;;5053008;28;20025;-75
2022/09/29 03:42:32;;;;;;;1.25;0.80;;;11.40;58.50;;;;;;5034984;28;20071;-76
2022/09/29 03:44:58;;;;;;;1.08;0.70;;;11.40;58.60;;;;;;5052200;28;20033;-75
2022/09/29 03:47:24;;;;;;;1.52;0.80;;;11.40;58.60;;;;;;5046829;28;20041;-76
2022/09/29 03:49:51;;;;;;;1.33;0.82;;;11.40;58.70;;;;;;5049545;28;20031;-75
2022/09/29 03:52:17;;;;;;;0.63;0.60;;;11.40;58.70;;;;;;5057540;28;20097;-77
2022/09/29 03:54:43;;;;;;;1.65;1.00;;;11.40;58.70;;;;;;5063429;28;20106;-76
2022/09/29 03:57:10;;;;;;;2.03;1.02;;;11.50;59.00;;;;;;5049815;28;20508;-77
2022/09/29 03:59:35;;;;;;;1.30;1.10;;;11.50;59.00;;;;;;5049486;28;20017;-76
2022/09/29 04:02:03;;;;;;;0.93;0.80;;;11.40;58.90;;;;;;5050815;28;20104;-76
2022/09/29 04:04:29;;;;;;;1.98;1.25;;;11.40;59.00;;;;;;5051487;28;20033;-75
2022/09/29 04:06:54;;;;;;;1.35;0.85;;;11.50;59.20;;;;;;5069363;28;20051;-76
2022/09/29 04:09:20;;;;;;;3.15;0.70;;;11.50;59.30;;;;;;5070685;28;20028;-76
2022/09/29 04:11:46;;;;;;;2.22;1.20;;;11.50;59.30;;;;;;5036957;28;20029;-76
2022/09/29 04:14:13;;;;;;;1.63;0.77;;;11.50;59.50;;;;;;5038530;28;20033;-76
2022/09/29 04:16:39;;;;;;;1.67;1.58;;;11.50;59.50;;;;;;5049393;28;20033;-75
2022/09/29 04:19:05;;;;;;;1.77;0.90;;;11.50;59.50;;;;;;5047882;28;20112;-77
2022/09/29 04:21:31;;;;;;;1.48;0.80;;;11.50;59.60;;;;;;5044440;28;20029;-76
2022/09/29 04:23:58;;;;;;;1.42;0.73;;;11.50;59.60;;;;;;5053245;28;20036;-75
2022/09/29 04:26:25;;;;;;;1.70;0.68;;;11.50;59.70;;;;;;5057962;28;20044;-75
2022/09/29 04:28:50;;;;;;;1.20;1.08;;;11.50;59.70;;;;;;5067802;28;20395;-75
2022/09/29 04:31:16;;;;;;;0.77;0.60;;;11.60;60.00;;;;;;5062635;28;20024;-75
2022/09/29 04:33:43;;;;;;;1.25;0.57;;;11.60;60.00;;;;;;5039671;28;20037;-76
2022/09/29 04:36:09;;;;;;;2.03;0.70;;;11.60;60.10;;;;;;5050773;28;20033;-75
2022/09/29 04:38:35;;;;;;;0.65;0.50;;;11.60;60.10;;;;;;5067584;28;20032;-76
2022/09/29 04:41:01;;;;;;;0.80;0.70;;;11.60;60.20;;;;;;5050261;28;20040;-76
2022/09/29 04:43:27;;;;;;;1.25;0.75;;;11.60;60.30;;;;;;5028375;28;20123;-76
2022/09/29 04:46:01;;;;;;;1.55;1.45;;;11.60;60.30;;;;;;5050106;28;20869;-75
2022/09/29 04:48:26;;;;;;;0.98;0.68;;;11.60;60.40;;;;;;5027655;28;20094;-76
2022/09/29 04:50:53;;;;;;;0.80;0.50;;;11.70;60.50;;;;;;5059011;28;20496;-77
2022/09/29 04:53:19;;;;;;;1.65;0.77;;;11.70;60.50;;;;;;5050543;28;20043;-77
2022/09/29 04:55:45;;;;;;;0.60;0.60;;;11.70;60.60;;;;;;5044639;28;20440;-76
2022/09/29 04:58:11;;;;;;;2.22;0.60;;;11.70;60.70;;;;;;5052974;28;20512;-76
2022/09/29 05:00:38;;;;;;;0.90;0.60;;;11.70;60.70;;;;;;5053829;28;20097;-76
2022/09/29 05:03:04;;;;;;;2.00;0.90;;;11.70;60.80;;;;;;5043269;28;20030;-75
2022/09/29 05:05:29;;;;;;;1.23;0.70;;;11.70;60.80;;;;;;5043682;28;20028;-75
2022/09/29 05:07:56;;;;;;;0.77;0.70;;;11.70;60.80;;;;;;5041457;28;20045;-76
2022/09/29 05:10:22;;;;;;;1.40;0.70;;;11.70;61.40;;;;;;5046438;28;20078;-74
2022/09/29 05:12:50;;;;;;;3.13;0.90;;;11.80;61.10;;;;;;5038562;28;20033;-78
2022/09/29 05:15:19;;;;;;;1.15;0.63;;;11.80;61.10;;;;;;5045189;28;20078;-76
2022/09/29 05:17:45;;;;;;;1.10;0.63;;;11.80;61.20;;;;;;5048792;28;20681;-75
2022/09/29 05:20:11;;;;;;;1.42;0.63;;;11.80;61.20;;;;;;5042866;28;20037;-75
2022/09/29 05:22:38;;;;;;;1.35;0.80;;;11.80;61.30;;;;;;5035718;28;20029;-74
2022/09/29 05:25:07;;;;;;;1.95;0.77;;;11.80;61.30;;;;;;5053176;28;20060;-76
2022/09/29 05:27:35;;;;;;;1.25;0.60;;;11.80;61.40;;;;;;5029654;28;20040;-75
2022/09/29 05:30:03;;;;;;;1.55;0.50;;;11.70;61.80;;;;;;5057358;28;20228;-75
2022/09/29 05:32:29;;;;;;;1.88;0.60;;;11.80;61.60;;;;;;5056954;28;20082;-76
2022/09/29 05:34:56;;;;;;;0.80;0.70;;;11.70;61.40;;;;;;5050541;28;20037;-76
2022/09/29 05:37:22;;;;;;;2.00;0.82;;;11.80;61.70;;;;;;5056393;28;20503;-76
2022/09/29 05:39:49;;;;;;;2.40;0.70;;;11.80;61.70;;;;;;5057831;28;20081;-76
2022/09/29 05:42:15;;;;;;;1.33;0.80;;;11.80;61.70;;;;;;5045617;28;20662;-75
2022/09/29 05:44:41;;;;;;;2.88;0.68;;;11.80;61.70;;;;;;5052955;28;20028;-78
2022/09/29 05:47:07;;;;;;;0.68;0.65;;;11.80;61.70;;;;;;5056198;28;20158;-77
2022/09/29 05:49:35;;;;;;;1.15;0.70;;;11.80;61.80;;;;;;5046109;28;20025;-77
2022/09/29 05:52:01;;;;;;;1.20;1.10;;;11.80;61.90;;;;;;5051367;28;20097;-78
2022/09/29 05:54:29;;;;;;;2.25;1.00;;;11.80;61.90;;;;;;5055507;28;20041;-77
2022/09/29 05:56:56;;;;;;;5.50;0.90;;;11.80;62.20;;;;;;5052038;28;20040;-82
2022/09/29 05:59:22;;;;;;;1.50;0.88;;;11.90;62.40;;;;;;5047325;28;20041;-78
2022/09/29 06:01:48;;;;;;;0.77;0.77;;;11.90;62.50;;;;;;5054481;28;20314;-79
2022/09/29 06:04:16;;;;;;;1.50;1.00;;;11.80;62.40;;;;;;5062122;28;20649;-77
2022/09/29 06:06:42;;;;;;;4.07;1.00;;;11.90;62.70;;;;;;5054672;28;20091;-77
2022/09/29 06:09:08;;;;;;;1.77;1.30;;;11.80;62.60;;;;;;5055459;28;20050;-78
2022/09/29 06:11:34;;;;;;;2.30;1.13;;;11.80;62.60;;;;;;5051722;28;20092;-76
2022/09/29 06:14:01;;;;;;;2.97;1.50;;;11.90;62.90;;;;;;5055329;28;20298;-76
2022/09/29 06:16:30;;;;;;;3.25;1.50;;;11.80;62.80;;;;;;5049300;28;20064;-78
2022/09/29 06:18:59;;;;;;;1.50;1.40;;;11.90;63.30;;;;;;5053230;28;20044;-78
2022/09/29 06:21:27;;;;;;;1.92;1.60;;;11.90;63.50;;;;;;5050050;28;20025;-75
2022/09/29 06:23:55;;;;;;;2.25;1.65;;;11.90;63.60;;;;;;5061707;28;20028;-78
2022/09/29 06:26:24;;;;;;;4.30;1.63;;;11.90;63.70;;;;;;5042122;28;20024;-77
2022/09/29 06:28:50;;;;;;;3.63;1.90;;;11.90;63.70;;;;;;5050011;28;20037;-77
2022/09/29 06:31:19;;;;;;;1.90;1.38;;;12.00;64.00;;;;;;5047426;28;20413;-77
2022/09/29 06:33:45;;;;;;;1.38;1.27;;;12.00;64.00;;;;;;5044074;28;20036;-76
2022/09/29 06:39:04;;;;;;;1.85;1.75;;;12.00;64.20;;;;;;5051274;28;20040;-76
2022/09/29 06:41:30;;;;;;;2.85;2.10;;;12.00;64.10;;;;;;5046228;28;20062;-76
2022/09/29 06:43:56;;;;;;;2.67;1.63;;;12.00;64.20;;;;;;5058726;28;20184;-77
2022/09/29 06:46:23;;;;;;;3.47;1.55;;;12.00;64.20;;;;;;5056212;28;20100;-77
2022/09/29 06:48:48;;;;;;;2.22;1.70;;;12.00;64.20;;;;;;5046544;28;20035;-78
2022/09/29 06:51:14;;;;;;;2.65;2.45;;;12.10;64.50;;;;;;5045926;28;20487;-78
2022/09/29 06:53:40;;;;;;;3.13;1.77;;;12.10;64.50;;;;;;5055606;28;20551;-78
2022/09/29 06:56:07;;;;;;;1.70;1.60;;;12.10;64.60;;;;;;5055409;28;20036;-78
2022/09/29 06:58:34;;;;;;;2.70;2.10;;;12.10;64.60;;;;;;5049600;28;20493;-79
2022/09/29 07:01:01;;;;;;;2.97;2.03;;;12.10;64.70;;;;;;5049558;28;20093;-77
2022/09/29 07:03:27;;;;;;;2.13;1.90;;;12.20;64.80;;;;;;5049472;28;20063;-76
2022/09/29 07:05:55;;;;;;;2.78;2.58;;;12.20;64.80;;;;;;5052250;28;20037;-78
2022/09/29 07:08:21;;;;;;;2.83;2.22;;;12.30;65.00;;;;;;5053056;28;20185;-77
2022/09/29 07:10:48;;;;;;;2.67;2.45;;;12.30;64.90;;;;;;5053501;28;20041;-78
2022/09/29 07:13:14;;;;;;;3.58;2.10;;;12.40;65.10;;;;;;5047708;28;20472;-79
2022/09/29 07:15:40;;;;;;;2.78;2.25;;;12.30;65.00;;;;;;5046578;28;20337;-79
2022/09/29 07:18:08;;;;;;;2.38;2.10;;;12.40;65.20;;;;;;5043053;28;20032;-77
2022/09/29 07:20:36;;;;;;;2.85;2.22;;;12.40;65.20;;;;;;5046073;28;20035;-78
2022/09/29 07:23:01;;;;;;;3.20;2.47;;;12.40;65.30;;;;;;5052922;28;20033;-77
2022/09/29 07:25:27;;;;;;;3.72;2.63;;;12.50;65.50;;;;;;5045023;28;20043;-78
2022/09/29 07:27:53;;;;;;;2.38;2.17;;;12.50;65.50;;;;;;5057171;28;20037;-76
2022/09/29 07:30:20;;;;;;;3.00;2.10;;;12.50;65.50;;;;;;5046840;28;20025;-78
2022/09/29 07:32:46;;;;;;;3.03;2.45;;;12.50;65.50;;;;;;5047751;28;20027;-78
2022/09/29 07:35:11;;;;;;;3.35;2.20;;;12.60;65.70;;;;;;5048277;28;20029;-77
2022/09/29 07:37:37;;;;;;;2.70;2.25;;;12.60;66.20;;;;;;5052754;28;20059;-78
2022/09/29 07:40:04;;;;;;;3.83;2.40;;;12.60;65.70;;;;;;5052864;28;20096;-78
2022/09/29 07:42:30;;;;;;;2.88;2.30;;;12.70;65.90;;;;;;5047519;28;20037;-79
2022/09/29 07:44:56;;;;;;;3.38;2.60;;;12.70;65.90;;;;;;5031874;28;20021;-78
2022/09/29 07:47:22;;;;;;;5.25;3.90;;;12.70;65.90;;;;;;5048451;28;20037;-79
2022/09/29 07:49:49;;;;;;;3.33;3.03;;;12.80;66.10;;;;;;5046716;28;20009;-79
2022/09/29 07:52:15;;;;;;;4.22;3.03;;;12.80;66.10;;;;;;5044940;28;20035;-76
2022/09/29 07:54:41;;;;;;;4.38;3.28;;;12.80;66.20;;;;;;5032713;28;20065;-78
2022/09/29 07:57:07;;;;;;;3.95;3.42;;;12.80;66.10;;;;;;5049404;28;20033;-77
2022/09/29 07:59:33;;;;;;;4.78;3.42;;;12.90;66.40;;;;;;5046469;28;20028;-79
2022/09/29 08:01:59;;;;;;;4.35;3.95;;;12.80;66.20;;;;;;5032051;28;20037;-79
2022/09/29 08:04:25;;;;;;;4.72;3.70;;;12.90;66.40;;;;;;5043923;28;20554;-77
2022/09/29 08:06:51;;;;;;;5.28;3.42;;;12.90;66.50;;;;;;5047619;28;20399;-77
2022/09/29 08:09:17;;;;;;;5.70;5.15;;;12.90;66.40;;;;;;5048891;28;20036;-78
2022/09/29 08:11:45;;;;;;;5.30;3.63;;;12.90;66.50;;;;;;5050077;28;20127;-77
2022/09/29 08:14:11;;;;;;;4.05;3.70;;;12.90;66.60;;;;;;5030591;28;20047;-76
2022/09/29 08:16:47;;;;;;;4.32;3.70;;;12.90;66.60;;;;;;5002745;28;20026;-76
2022/09/29 08:19:13;;;;;;;4.00;3.70;;;13.00;66.90;;;;;;5034369;28;20022;-77
2022/09/29 08:21:39;;;;;;;4.32;3.92;;;13.00;66.80;;;;;;5045457;28;20442;-76
2022/09/29 08:24:05;;;;;;;5.10;3.95;;;13.00;66.80;;;;;;5047148;28;20103;-77
2022/09/29 08:26:34;;;;;;;4.60;4.20;;;13.10;67.00;;;;;;5045804;28;20017;-76
2022/09/29 08:29:03;;;;;;;3.67;3.38;;;13.10;67.00;;;;;;5047200;28;20040;-76
2022/09/29 08:31:29;;;;;;;3.72;3.42;;;13.10;67.00;;;;;;5044684;28;20029;-77
2022/09/29 08:33:57;;;;;;;3.90;3.50;;;13.20;67.30;;;;;;5040769;28;20045;-76
2022/09/29 08:36:23;;;;;;;4.18;3.40;;;13.30;67.30;;;;;;5050188;28;20028;-76
2022/09/29 08:38:52;;;;;;;5.45;3.63;;;13.30;67.20;;;;;;5036573;28;20057;-77
2022/09/29 08:41:24;;;;;;;4.07;3.25;;;13.40;67.20;;;;;;5046116;28;20021;-78
2022/09/29 08:43:58;;;;;;;3.30;3.10;;;13.50;67.30;;;;;;5027109;28;20034;-77
2022/09/29 08:46:44;;;;;;;3.95;3.58;;;13.50;67.20;;;;;;5047426;28;20076;-80
2022/09/29 08:49:39;;;;;;;4.90;3.95;;;13.60;67.30;;;;;;5041471;28;20037;-77
2022/09/29 08:52:14;;;;;;;3.30;3.00;;;13.60;67.40;;;;;;5051926;28;20078;-77
2022/09/29 08:54:42;;;;;;;3.10;2.75;;;13.70;67.30;;;;;;5046624;28;20501;-78
2022/09/29 08:57:19;;;;;;;3.10;2.80;;;13.80;67.40;;;;;;5041932;28;20500;-78
2022/09/29 08:59:56;;;;;;;3.15;2.70;;;13.80;67.40;;;;;;5050108;28;20507;-78
2022/09/29 09:03:05;;;;;;;2.45;2.25;;;13.90;67.60;;;;;;5053123;28;20043;-78
2022/09/29 09:06:04;;;;;;;4.25;2.42;;;13.90;67.60;;;;;;5028686;28;20449;-78
2022/09/29 09:08:50;;;;;;;3.97;2.63;;;13.90;67.50;;;;;;5040187;28;20114;-77
2022/09/29 09:11:35;;;;;;;2.50;2.30;;;14.00;67.50;;;;;;5054604;28;20037;-76
2022/09/29 09:14:23;;;;;;;10.73;2.90;;;14.10;67.50;;;;;;5052731;28;20268;-78
2022/09/29 09:17:09;;;;;;;4.07;2.20;;;14.10;67.50;;;;;;5048738;28;20029;-77
2022/09/29 09:19:37;;;;;;;2.58;1.75;;;14.30;67.70;;;;;;5048955;28;20045;-78
2022/09/29 09:22:52;;;;;;;3.58;1.95;;;14.50;67.70;;;;;;5036612;28;20392;-77
2022/09/29 09:25:32;;;;;;;4.32;1.90;;;14.60;67.50;;;;;;5054465;28;20345;-77
2022/09/29 09:28:02;;;;;;;3.33;2.00;;;14.80;67.30;;;;;;5045426;28;20451;-77
2022/09/29 09:30:36;;;;;;;2.17;1.45;;;14.90;67.30;;;;;;5052491;28;20017;-81
2022/09/29 09:33:07;;;;;;;2.47;1.42;;;15.00;67.80;;;;;;5052580;28;20032;-80
2022/09/29 09:35:44;;;;;;;2.30;1.50;;;15.00;67.10;;;;;;5054763;28;20056;-79
2022/09/29 09:38:46;;;;;;;2.15;1.60;;;15.10;67.10;;;;;;5051520;28;20032;-79
2022/09/29 09:41:16;;;;;;;2.80;1.92;;;15.10;67.00;;;;;;5050093;28;20037;-78
2022/09/29 09:43:47;;;;;;;3.10;1.73;;;15.20;67.00;;;;;;5053748;28;20538;-79
2022/09/29 09:46:22;;;;;;;5.50;3.10;;;15.10;66.80;;;;;;5052769;28;20025;-79
2022/09/29 09:49:13;;;;;;;3.92;2.30;;;15.10;66.90;;;;;;5050943;28;20037;-79
2022/09/29 09:52:01;;;;;;;2.65;1.90;;;15.10;67.50;;;;;;5053178;28;20095;-79
2022/09/29 09:54:45;;;;;;;2.95;2.13;;;15.10;67.00;;;;;;5052015;28;20056;-79
2022/09/29 09:57:39;;;;;;;3.40;2.08;;;15.10;66.80;;;;;;5061678;28;20031;-78
2022/09/29 10:00:43;;;;;;;3.13;1.90;;;15.10;66.70;;;;;;5033626;28;20074;-78
2022/09/29 10:03:09;;;;;;;;;;;15.10;66.70;;;;;;5059325;28;20047;-80
2022/09/29 10:05:44;;;;;;;5.20;3.00;;;15.10;66.60;;;;;;5044601;28;19971;-78
2022/09/29 10:08:38;;;;;;;4.95;2.30;;;15.10;66.50;;;;;;5046867;28;20041;-78
2022/09/29 10:11:21;;;;;;;3.67;1.60;;;15.10;66.60;;;;;;5052859;28;20049;-77
2022/09/29 10:13:55;;;;;;;13.18;3.08;;;15.00;66.40;;;;;;5054258;28;20032;-79
2022/09/29 10:16:31;;;;;;;1.85;1.52;;;15.00;66.40;;;;;;5052689;28;20036;-78
2022/09/29 10:18:57;;;;;;;5.55;1.73;;;15.00;66.40;;;;;;5047696;28;20029;-80
2022/09/29 10:21:38;;;;;;;2.45;1.63;;;15.00;66.40;;;;;;5046704;28;20369;-79
2022/09/29 10:24:19;;;;;;;5.30;1.60;;;15.00;66.30;;;;;;5061156;28;20032;-78
2022/09/29 10:26:47;;;;;;;8.15;1.80;;;15.10;66.40;;;;;;5050592;28;20143;-78
2022/09/29 10:29:48;;;;;;;2.17;1.55;;;15.10;66.30;;;;;;5033372;28;20055;-79
2022/09/29 10:32:21;;;;;;;3.63;1.50;;;15.20;66.40;;;;;;5036629;28;20143;-79
2022/09/29 10:35:02;;;;;;;1.52;1.30;;;15.20;66.10;;;;;;5047643;28;20099;-80
2022/09/29 10:37:40;;;;;;;3.55;2.25;;;15.30;66.10;;;;;;5029602;28;20041;-78
2022/09/29 10:40:16;;;;;;;3.50;1.50;;;15.40;66.00;;;;;;5052960;28;20033;-77
2022/09/29 10:42:49;;;;;;;1.98;1.70;;;15.60;66.00;;;;;;5053462;28;20041;-77
2022/09/29 10:45:26;;;;;;;;;;;15.70;65.80;;;;;;5031755;28;20537;-79
2022/09/29 10:47:58;;;;;;;1.95;1.30;;;15.90;65.70;;;;;;5053614;28;19920;-80
2022/09/29 10:50:33;;;;;;;4.78;2.38;;;16.00;65.40;;;;;;5052876;28;20027;-78
2022/09/29 10:53:03;;;;;;;3.30;1.73;;;16.10;65.40;;;;;;5027902;28;20100;-80
2022/09/29 10:55:34;;;;;;;2.90;1.80;;;16.10;65.40;;;;;;5054701;28;20608;-79
2022/09/29 10:58:18;;;;;;;5.50;2.47;;;16.20;65.50;;;;;;5054072;28;20048;-77
2022/09/29 11:00:46;;;;;;;3.15;2.75;;;16.20;65.50;;;;;;5045991;28;20400;-78
2022/09/29 11:03:26;;;;;;;2.33;1.60;;;16.20;65.40;;;;;;5060491;28;20056;-77
2022/09/29 11:05:58;;;;;;;3.22;1.83;;;16.30;65.50;;;;;;5050140;28;20041;-79
2022/09/29 11:08:27;;;;;;;2.88;1.67;;;16.50;65.60;;;;;;5040472;28;20732;-77
2022/09/29 11:11:02;;;;;;;3.15;1.83;;;16.60;65.40;;;;;;5040587;28;20439;-80
2022/09/29 11:13:38;;;;;;;2.90;1.83;;;16.80;65.50;;;;;;5059287;28;20028;-80
2022/09/29 11:16:31;;;;;;;3.55;2.00;;;16.90;65.40;;;;;;5057547;28;20045;-79
2022/09/29 11:19:06;;;;;;;4.55;1.73;;;17.10;65.30;;;;;;5046162;28;20039;-77
2022/09/29 11:21:40;;;;;;;3.65;1.95;;;17.20;65.10;;;;;;5049066;28;20032;-75
2022/09/29 11:24:26;;;;;;;2.25;1.50;;;17.20;64.90;;;;;;5039994;28;20500;-78
2022/09/29 11:27:02;;;;;;;3.25;1.75;;;17.20;64.80;;;;;;5038094;28;20234;-77
2022/09/29 11:29:47;;;;;;;2.80;1.80;;;17.10;64.60;;;;;;5058886;28;20021;-78
2022/09/29 11:32:26;;;;;;;2.35;1.73;;;17.10;64.70;;;;;;5067998;28;20080;-79
2022/09/29 11:35:19;;;;;;;3.70;2.45;;;17.10;64.60;;;;;;5061789;28;20088;-77
2022/09/29 11:37:54;;;;;;;3.60;1.40;;;17.00;64.50;;;;;;5054057;28;20424;-77
2022/09/29 11:40:27;;;;;;;3.45;1.33;;;16.90;64.50;;;;;;5057675;28;20028;-77
2022/09/29 11:43:07;;;;;;;1.83;1.42;;;17.00;64.80;;;;;;5051920;28;20044;-77
2022/09/29 11:45:36;;;;;;;2.30;1.20;;;16.90;64.70;;;;;;5053616;28;20032;-76
2022/09/29 11:48:12;;;;;;;2.20;1.30;;;17.00;64.80;;;;;;5063312;28;20045;-76
2022/09/29 11:50:58;;;;;;;1.42;1.30;;;17.00;64.80;;;;;;5044315;28;20044;-77
2022/09/29 11:53:43;;;;;;;1.63;1.52;;;17.10;64.60;;;;;;5046975;28;20025;-77
2022/09/29 11:56:18;;;;;;;4.15;2.42;;;17.20;64.50;;;;;;5048565;28;20114;-82
2022/09/29 11:59:26;;;;;;;3.72;2.35;;;17.30;64.40;;;;;;5056921;28;20037;-78
2022/09/29 12:02:15;;;;;;;3.40;2.15;;;17.40;64.20;;;;;;5035154;28;20033;-78
2022/09/29 12:05:08;;;;;;;2.53;2.20;;;17.50;64.20;;;;;;5056229;28;20611;-76
2022/09/29 12:08:01;;;;;;;3.63;2.42;;;17.50;64.00;;;;;;5048838;28;20048;-78
2022/09/29 12:10:48;;;;;;;;;;;17.60;64.00;;;;;;5045726;28;20033;-78
2022/09/29 12:13:37;;;;;;;3.20;2.90;;;17.70;64.00;;;;;;5052857;28;20411;-78
2022/09/29 12:16:13;;;;;;;3.10;2.83;;;17.80;63.90;;;;;;5055546;28;20028;-78
2022/09/29 12:18:47;;;;;;;4.10;2.75;;;18.00;63.80;;;;;;5044929;28;20025;-77
2022/09/29 12:21:19;;;;;;;3.78;3.47;;;18.20;63.70;;;;;;5046126;28;20033;-77
2022/09/29 12:23:49;;;;;;;3.33;3.00;;;18.20;63.30;;;;;;5034905;28;20029;-77
2022/09/29 12:26:21;;;;;;;3.38;3.10;;;18.20;63.20;;;;;;5030237;28;20021;-77
2022/09/29 12:28:54;;;;;;;4.43;4.03;;;18.10;63.00;;;;;;5053481;28;20238;-78
2022/09/29 12:31:37;;;;;;;4.95;4.38;;;17.90;62.80;;;;;;5049941;28;20041;-77
2022/09/29 12:34:16;;;;;;;6.18;3.88;;;17.70;62.80;;;;;;5044970;28;20041;-78
2022/09/29 12:37:31;;;;;;;3.78;3.38;;;17.50;62.80;;;;;;5030851;28;20042;-78
2022/09/29 12:40:18;;;;;;;4.40;3.85;;;17.40;63.00;;;;;;5022006;28;20439;-76
2022/09/29 12:43:23;;;;;;;5.07;3.25;;;17.30;63.10;;;;;;5003271;28;20042;-75
2022/09/29 12:45:52;;;;;;;4.05;2.80;;;17.20;63.10;;;;;;5048348;28;20048;-76
2022/09/29 12:48:34;;;;;;;4.28;3.88;;;17.10;63.00;;;;;;5046250;28;20041;-75
2022/09/29 12:51:23;;;;;;;3.30;2.90;;;17.10;63.10;;;;;;5052330;28;20086;-76
2022/09/29 12:53:59;;;;;;;4.85;2.97;;;17.20;63.30;;;;;;5032314;28;20034;-77
2022/09/29 12:56:38;;;;;;;5.43;3.15;;;17.20;63.20;;;;;;5048990;28;20532;-77
2022/09/29 12:59:19;;;;;;;4.63;3.20;;;17.30;63.20;;;;;;5050917;28;20041;-77
2022/09/29 13:01:48;;;;;;;3.80;3.15;;;17.40;63.20;;;;;;5050056;28;20037;-76
2022/09/29 13:04:40;;;;;;;4.78;3.50;;;17.60;63.20;;;;;;5044668;28;20045;-77
2022/09/29 13:07:37;;;;;;;3.63;3.17;;;17.70;63.00;;;;;;5048949;28;20039;-77
2022/09/29 13:10:41;;;;;;;3.50;2.90;;;17.80;62.90;;;;;;5043561;28;20410;-76
2022/09/29 13:13:20;;;;;;;3.42;2.78;;;17.90;62.80;;;;;;5048562;28;20024;-76
2022/09/29 13:16:12;;;;;;;3.30;3.00;;;17.90;62.60;;;;;;5052960;28;20044;-75
2022/09/29 13:19:01;;;;;;;3.67;2.88;;;18.00;62.60;;;;;;5042416;28;20029;-78
2022/09/29 13:22:05;;;;;;;3.35;3.08;;;18.00;62.50;;;;;;5022220;28;20040;-76